createdAt,value
2019-01-25T00:00:08.794Z,15.77
2019-01-25T00:02:35.324Z,16.37
2019-01-25T00:05:02.167Z,16.17
2019-01-25T00:07:28.709Z,14.30
2019-01-25T00:09:58.707Z,14.20
2019-01-25T00:12:23.613Z,15.40
2019-01-25T00:14:50.148Z,13.87
2019-01-25T00:17:17.064Z,15.27
2019-01-25T00:19:43.834Z,16.27
2019-01-25T00:22:10.673Z,15.90
2019-01-25T00:24:37.214Z,14.87
2019-01-25T00:27:03.745Z,15.80
2019-01-25T00:29:30.584Z,14.43
2019-01-25T00:31:57.118Z,16.73
2019-01-25T00:34:23.961Z,13.73
2019-01-25T00:36:50.494Z,15.60
2019-01-25T00:39:17.048Z,13.10
2019-01-25T00:41:43.873Z,14.70
2019-01-25T00:44:10.405Z,14.13
2019-01-25T00:46:37.249Z,14.53
2019-01-25T00:49:03.784Z,14.83
2019-01-25T00:51:30.317Z,11.97
2019-01-25T00:53:57.160Z,15.87
2019-01-25T00:56:23.693Z,15.37
2019-01-25T00:58:50.230Z,13.63
2019-01-25T01:01:16.761Z,15.30
2019-01-25T01:03:43.601Z,13.83
2019-01-25T01:06:10.445Z,14.07
2019-01-25T01:08:36.981Z,15.73
2019-01-25T01:11:03.513Z,14.53
2019-01-25T01:13:30.359Z,12.73
2019-01-25T01:15:57.196Z,13.97
2019-01-25T01:18:24.038Z,14.50
2019-01-25T01:20:50.880Z,15.63
2019-01-25T01:23:17.415Z,14.53
2019-01-25T01:25:43.949Z,14.03
2019-01-25T01:28:10.488Z,15.97
2019-01-25T01:30:37.328Z,14.53
2019-01-25T01:33:03.859Z,14.20
2019-01-25T01:35:30.432Z,13.43
2019-01-25T01:37:56.927Z,13.50
2019-01-25T01:40:23.464Z,13.90
2019-01-25T01:42:50.305Z,13.50
2019-01-25T01:45:16.838Z,14.97
2019-01-25T01:47:43.681Z,13.90
2019-01-25T01:50:10.217Z,13.80
2019-01-25T01:52:36.750Z,13.63
2019-01-25T01:55:03.591Z,13.33
2019-01-25T01:57:30.126Z,14.37
2019-01-25T01:59:56.968Z,13.73
2019-01-25T02:02:23.502Z,15.23
2019-01-25T02:04:50.038Z,13.10
2019-01-25T02:07:16.878Z,13.27
2019-01-25T02:09:43.416Z,14.07
2019-01-25T02:12:09.952Z,13.93
2019-01-25T02:14:36.481Z,13.93
2019-01-25T02:17:03.015Z,13.30
2019-01-25T02:19:29.553Z,13.40
2019-01-25T02:21:56.084Z,11.33
2019-01-25T02:24:22.927Z,14.70
2019-01-25T02:26:49.461Z,13.80
2019-01-25T02:29:15.996Z,12.77
2019-01-25T02:31:42.841Z,13.90
2019-01-25T02:34:09.682Z,12.40
2019-01-25T02:36:36.520Z,13.70
2019-01-25T02:39:03.034Z,14.37
2019-01-25T02:41:29.590Z,13.67
2019-01-25T02:43:56.431Z,12.87
2019-01-25T02:46:22.965Z,12.80
2019-01-25T02:48:49.500Z,15.20
2019-01-25T02:51:16.035Z,13.97
2019-01-25T02:53:42.882Z,13.90
2019-01-25T02:56:09.719Z,14.80
2019-01-25T02:58:36.256Z,13.60
2019-01-25T03:01:02.787Z,16.03
2019-01-25T03:03:29.323Z,15.43
2019-01-25T03:05:55.856Z,12.57
2019-01-25T03:08:22.697Z,12.40
2019-01-25T03:10:49.541Z,13.67
2019-01-25T03:13:16.075Z,12.53
2019-01-25T03:15:42.921Z,12.73
2019-01-25T03:18:09.452Z,13.37
2019-01-25T03:20:36.292Z,11.93
2019-01-25T03:23:02.829Z,11.53
2019-01-25T03:25:29.669Z,12.40
2019-01-25T03:27:56.510Z,13.27
2019-01-25T03:30:23.047Z,12.50
2019-01-25T03:32:49.583Z,13.97
2019-01-25T03:35:16.113Z,14.00
2019-01-25T03:37:42.959Z,14.07
2019-01-25T03:40:09.798Z,12.80
2019-01-25T03:42:36.639Z,14.83
2019-01-25T03:45:03.489Z,12.97
2019-01-25T03:47:30.018Z,11.53
2019-01-25T03:49:56.555Z,13.77
2019-01-25T03:52:23.085Z,12.63
2019-01-25T03:54:49.624Z,14.60
2019-01-25T03:57:16.461Z,10.93
2019-01-25T03:59:42.995Z,13.80
2019-01-25T04:02:09.837Z,12.53
2019-01-25T04:04:36.680Z,14.07
2019-01-25T04:07:03.212Z,12.00
2019-01-25T04:09:29.748Z,11.37
2019-01-25T04:11:56.283Z,14.83
2019-01-25T04:14:23.124Z,13.23
2019-01-25T04:16:49.965Z,13.77
2019-01-25T04:19:16.499Z,13.20
2019-01-25T04:21:43.034Z,11.90
2019-01-25T04:24:09.883Z,11.93
2019-01-25T04:26:36.410Z,11.50
2019-01-25T04:29:03.235Z,13.33
2019-01-25T04:31:29.790Z,12.13
2019-01-25T04:33:56.321Z,13.17
2019-01-25T04:36:22.856Z,10.83
2019-01-25T04:38:49.397Z,12.87
2019-01-25T04:41:15.926Z,11.77
2019-01-25T04:43:42.459Z,11.83
2019-01-25T04:46:09.301Z,13.67
2019-01-25T04:48:35.835Z,12.90
2019-01-25T04:51:02.678Z,11.90
2019-01-25T04:53:29.216Z,13.30
2019-01-25T04:55:56.056Z,11.60
2019-01-25T04:58:22.896Z,13.07
2019-01-25T05:00:49.739Z,11.97
2019-01-25T05:03:16.273Z,12.47
2019-01-25T05:05:42.809Z,12.70
2019-01-25T05:08:09.341Z,12.97
2019-01-25T05:10:36.183Z,12.63
2019-01-25T05:13:03.024Z,12.37
2019-01-25T05:15:29.867Z,12.57
2019-01-25T05:17:56.405Z,13.03
2019-01-25T05:20:22.934Z,12.37
2019-01-25T05:22:49.775Z,10.90
2019-01-25T05:25:16.624Z,12.30
2019-01-25T05:27:43.150Z,11.40
2019-01-25T05:30:09.689Z,14.17
2019-01-25T05:32:36.220Z,10.90
2019-01-25T05:35:02.756Z,11.13
2019-01-25T05:37:29.304Z,11.37
2019-01-25T05:39:55.824Z,12.03
2019-01-25T05:42:22.357Z,13.97
2019-01-25T05:44:48.894Z,12.87
2019-01-25T05:47:15.734Z,12.13
2019-01-25T05:49:42.302Z,12.40
2019-01-25T05:52:08.804Z,12.07
2019-01-25T05:54:35.648Z,12.63
2019-01-25T05:57:02.488Z,12.20
2019-01-25T05:59:29.328Z,13.90
2019-01-25T06:01:55.863Z,12.23
2019-01-25T06:04:22.398Z,11.97
2019-01-25T06:06:49.238Z,11.83
2019-01-25T06:09:15.775Z,11.00
2019-01-25T06:11:42.625Z,11.20
2019-01-25T06:14:09.152Z,12.20
2019-01-25T06:16:35.686Z,14.43
2019-01-25T06:19:02.221Z,12.20
2019-01-25T06:21:28.757Z,13.33
2019-01-25T06:23:55.372Z,12.53
2019-01-25T06:26:22.130Z,11.40
2019-01-25T06:28:48.970Z,13.37
2019-01-25T06:31:15.506Z,11.07
2019-01-25T06:33:42.042Z,11.20
2019-01-25T06:36:08.887Z,12.97
2019-01-25T06:38:35.418Z,12.47
2019-01-25T06:41:01.951Z,12.93
2019-01-25T06:43:28.487Z,13.97
2019-01-25T06:45:55.327Z,12.10
2019-01-25T06:48:22.168Z,12.80
2019-01-25T06:50:49.011Z,15.33
2019-01-25T06:53:15.546Z,14.30
2019-01-25T06:55:42.181Z,12.13
2019-01-25T06:58:08.920Z,12.10
2019-01-25T07:00:35.766Z,12.93
2019-01-25T07:03:02.300Z,12.83
2019-01-25T07:05:28.835Z,14.43
2019-01-25T07:07:55.366Z,14.20
2019-01-25T07:10:22.207Z,12.13
2019-01-25T07:12:49.052Z,13.47
2019-01-25T07:15:15.593Z,14.23
2019-01-25T07:17:42.120Z,14.93
2019-01-25T07:20:08.653Z,11.77
2019-01-25T07:22:35.495Z,14.20
2019-01-25T07:25:02.336Z,12.80
2019-01-25T07:27:28.871Z,14.63
2019-01-25T07:29:55.396Z,13.17
2019-01-25T07:32:21.952Z,12.60
2019-01-25T07:34:48.783Z,12.37
2019-01-25T07:37:15.623Z,13.13
2019-01-25T07:39:42.158Z,12.67
2019-01-25T07:42:08.695Z,11.43
2019-01-25T07:44:35.252Z,11.80
2019-01-25T07:47:01.762Z,13.63
2019-01-25T07:49:28.607Z,15.90
2019-01-25T07:51:55.209Z,13.00
2019-01-25T07:54:22.002Z,14.10
2019-01-25T07:56:48.513Z,15.57
2019-01-25T07:59:15.361Z,13.50
2019-01-25T08:01:42.197Z,14.13
2019-01-25T08:04:08.763Z,14.07
2019-01-25T08:06:35.266Z,12.97
2019-01-25T08:09:02.109Z,14.87
2019-01-25T08:11:28.643Z,14.70
2019-01-25T08:13:55.485Z,14.80
2019-01-25T08:16:22.028Z,14.90
2019-01-25T08:18:48.553Z,12.60
2019-01-25T08:21:15.089Z,14.50
2019-01-25T08:23:41.622Z,17.40
2019-01-25T08:26:08.463Z,13.17
2019-01-25T08:28:35.025Z,14.93
2019-01-25T08:31:01.537Z,14.93
2019-01-25T08:33:28.101Z,15.07
2019-01-25T08:35:54.604Z,12.77
2019-01-25T08:38:21.443Z,14.13
2019-01-25T08:40:48.286Z,14.60
2019-01-25T08:43:14.829Z,15.13
2019-01-25T08:45:41.367Z,13.40
2019-01-25T08:48:08.302Z,15.03
2019-01-25T08:50:35.413Z,15.13
2019-01-25T08:53:02.205Z,14.43
2019-01-25T08:55:29.098Z,15.07
2019-01-25T08:57:56.189Z,15.93
2019-01-25T09:00:22.713Z,16.87
2019-01-25T09:02:49.559Z,15.07
2019-01-25T09:05:16.087Z,16.67
2019-01-25T09:07:42.625Z,13.97
2019-01-25T09:10:09.155Z,16.23
2019-01-25T09:12:35.692Z,17.57
2019-01-25T09:15:02.533Z,16.60
2019-01-25T09:17:29.067Z,15.93
2019-01-25T09:19:55.599Z,16.03
2019-01-25T09:22:22.444Z,14.97
2019-01-25T09:24:48.980Z,17.00
2019-01-25T09:27:15.821Z,16.07
2019-01-25T09:29:42.360Z,16.70
2019-01-25T09:32:08.888Z,14.30
2019-01-25T09:34:35.729Z,18.57
2019-01-25T09:37:02.263Z,17.37
2019-01-25T09:39:29.106Z,16.50
2019-01-25T09:41:55.640Z,18.80
2019-01-25T09:44:22.174Z,16.53
2019-01-25T09:46:49.017Z,17.63
2019-01-25T09:49:15.551Z,18.27
2019-01-25T09:51:42.396Z,20.90
2019-01-25T09:54:09.234Z,16.10
2019-01-25T09:56:35.770Z,18.47
2019-01-25T09:59:02.307Z,19.10
2019-01-25T10:01:28.839Z,19.73
2019-01-25T10:03:55.355Z,18.07
2019-01-25T10:06:21.912Z,20.13
2019-01-25T10:08:48.748Z,18.53
2019-01-25T10:11:15.284Z,17.03
2019-01-25T10:13:42.128Z,20.67
2019-01-25T10:16:08.967Z,20.53
2019-01-25T10:18:35.809Z,20.73
2019-01-25T10:21:02.651Z,20.57
2019-01-25T10:23:29.183Z,19.23
2019-01-25T10:25:55.811Z,18.83
2019-01-25T10:28:22.566Z,23.17
2019-01-25T10:30:49.099Z,19.60
2019-01-25T10:33:15.937Z,19.30
2019-01-25T10:35:42.475Z,22.67
2019-01-25T10:38:09.330Z,19.73
2019-01-25T10:40:35.849Z,20.63
2019-01-25T10:43:02.381Z,20.70
2019-01-25T10:45:29.231Z,21.33
2019-01-25T10:47:55.746Z,22.97
2019-01-25T10:50:22.601Z,20.07
2019-01-25T10:52:49.148Z,22.00
2019-01-25T10:55:15.669Z,21.33
2019-01-25T10:57:42.515Z,25.20
2019-01-25T11:00:09.353Z,23.07
2019-01-25T11:02:35.887Z,23.57
2019-01-25T11:05:02.421Z,22.87
2019-01-25T11:07:28.956Z,23.83
2019-01-25T11:09:55.589Z,24.80
2019-01-25T11:12:22.332Z,24.90
2019-01-25T11:14:48.867Z,27.17
2019-01-25T11:17:15.400Z,23.67
2019-01-25T11:19:41.936Z,20.70
2019-01-25T11:22:08.779Z,25.63
2019-01-25T11:24:35.317Z,23.80
2019-01-25T11:27:01.852Z,23.13
2019-01-25T11:29:28.383Z,23.57
2019-01-25T11:31:54.917Z,24.67
2019-01-25T11:34:21.758Z,22.00
2019-01-25T11:36:48.599Z,24.73
2019-01-25T11:39:15.134Z,21.13
2019-01-25T11:41:41.975Z,23.07
2019-01-25T11:44:08.817Z,24.80
2019-01-25T11:46:35.659Z,20.93
2019-01-25T11:49:02.195Z,23.97
2019-01-25T11:51:28.727Z,25.33
2019-01-25T11:53:55.561Z,23.83
2019-01-25T11:56:22.103Z,21.37
2019-01-25T11:58:48.944Z,24.40
2019-01-25T12:01:15.483Z,25.77
2019-01-25T12:03:42.037Z,25.70
2019-01-25T12:06:08.554Z,21.43
2019-01-25T12:08:35.086Z,26.17
2019-01-25T12:11:01.926Z,24.33
2019-01-25T12:13:28.462Z,24.77
2019-01-25T12:15:55.916Z,25.90
2019-01-25T12:18:22.469Z,25.53
2019-01-25T12:20:49.291Z,26.93
2019-01-25T12:23:16.133Z,26.50
2019-01-25T12:25:42.974Z,26.10
2019-01-25T12:28:09.512Z,26.07
2019-01-25T12:30:37.791Z,26.57
2019-01-25T12:33:04.421Z,26.77
2019-01-25T12:35:31.263Z,27.97
2019-01-25T12:37:57.844Z,26.33
2019-01-25T12:40:24.639Z,27.17
2019-01-25T12:42:51.174Z,26.13
2019-01-25T12:45:17.709Z,28.40
2019-01-25T12:47:44.550Z,28.40
2019-01-25T12:50:11.392Z,28.13
2019-01-25T12:52:37.927Z,25.47
2019-01-25T12:55:04.463Z,28.07
2019-01-25T12:57:31.304Z,30.77
2019-01-25T12:59:58.144Z,29.73
2019-01-25T13:02:24.985Z,30.47
2019-01-25T13:04:51.519Z,28.17
2019-01-25T13:07:18.057Z,28.60
2019-01-25T13:09:44.591Z,28.40
2019-01-25T13:12:11.430Z,28.60
2019-01-25T13:14:38.272Z,28.47
2019-01-25T13:17:05.132Z,31.27
2019-01-25T13:19:31.956Z,31.53
2019-01-25T13:21:58.490Z,29.77
2019-01-25T13:24:25.334Z,31.57
2019-01-25T13:26:51.865Z,32.77
2019-01-25T13:29:25.909Z,30.83
2019-01-25T13:31:47.125Z,31.17
2019-01-25T13:34:14.247Z,30.80
2019-01-25T13:36:41.382Z,32.60
2019-01-25T13:39:07.920Z,31.83
2019-01-25T13:41:34.452Z,33.43
2019-01-25T13:44:00.975Z,33.30
2019-01-25T13:46:27.831Z,34.83
2019-01-25T13:48:54.669Z,32.80
2019-01-25T13:51:21.514Z,34.80
2019-01-25T13:53:48.354Z,33.90
2019-01-25T13:56:14.888Z,32.07
2019-01-25T13:58:41.423Z,33.93
2019-01-25T14:01:08.264Z,33.83
2019-01-25T14:03:35.106Z,35.77
2019-01-25T14:06:01.948Z,37.10
2019-01-25T14:08:28.790Z,33.87
2019-01-25T14:10:55.326Z,33.13
2019-01-25T14:13:21.859Z,37.97
2019-01-25T14:15:48.395Z,34.87
2019-01-25T14:18:15.235Z,32.27
2019-01-25T14:20:41.769Z,34.43
2019-01-25T14:23:08.613Z,35.90
2019-01-25T14:25:35.456Z,34.17
2019-01-25T14:28:02.294Z,35.37
2019-01-25T14:30:29.135Z,33.90
2019-01-25T14:32:55.674Z,36.43
2019-01-25T14:35:22.517Z,36.13
2019-01-25T14:37:49.049Z,34.43
2019-01-25T14:40:15.580Z,34.27
2019-01-25T14:42:42.427Z,36.43
2019-01-25T14:45:08.959Z,34.03
2019-01-25T14:47:35.491Z,35.67
2019-01-25T14:50:02.028Z,37.23
2019-01-25T14:52:28.561Z,34.83
2019-01-25T14:54:56.624Z,32.07
2019-01-25T14:57:23.474Z,35.00
2019-01-25T14:59:50.008Z,36.30
2019-01-25T15:02:16.859Z,36.27
2019-01-25T15:04:43.389Z,34.40
2019-01-25T15:07:09.920Z,35.23
2019-01-25T15:09:38.049Z,37.20
2019-01-25T15:12:04.720Z,34.73
2019-01-25T15:14:31.365Z,37.77
2019-01-25T15:16:57.899Z,34.97
2019-01-25T15:19:24.742Z,37.03
2019-01-25T15:21:51.287Z,40.03
2019-01-25T15:24:17.811Z,35.97
2019-01-25T15:26:44.374Z,37.77
2019-01-25T15:29:10.880Z,35.60
2019-01-25T15:31:37.723Z,35.70
2019-01-25T15:34:04.565Z,37.57
2019-01-25T15:36:31.101Z,34.17
2019-01-25T15:38:57.942Z,35.83
2019-01-25T15:41:24.474Z,37.83
2019-01-25T15:43:51.110Z,37.13
2019-01-25T15:46:17.848Z,36.27
2019-01-25T15:48:44.384Z,40.17
2019-01-25T15:51:10.936Z,33.40
2019-01-25T15:53:37.759Z,38.20
2019-01-25T15:56:04.602Z,34.57
2019-01-25T15:58:31.444Z,37.20
2019-01-25T16:00:57.978Z,38.03
2019-01-25T16:03:24.512Z,41.17
2019-01-25T16:05:51.053Z,37.93
2019-01-25T16:08:17.888Z,40.47
2019-01-25T16:10:44.732Z,36.17
2019-01-25T16:13:11.268Z,40.80
2019-01-25T16:15:37.799Z,40.00
2019-01-25T16:18:04.341Z,38.93
2019-01-25T16:20:31.176Z,38.47
2019-01-25T16:22:57.728Z,35.63
2019-01-25T16:25:24.551Z,37.87
2019-01-25T16:27:51.085Z,38.83
2019-01-25T16:30:17.927Z,38.13
2019-01-25T16:32:44.769Z,38.80
2019-01-25T16:35:11.307Z,40.67
2019-01-25T16:37:37.838Z,38.63
2019-01-25T16:40:04.374Z,41.33
2019-01-25T16:42:30.885Z,39.60
2019-01-25T16:44:57.748Z,41.23
2019-01-25T16:47:24.287Z,38.27
2019-01-25T16:49:50.820Z,40.77
2019-01-25T16:52:17.659Z,41.50
2019-01-25T16:54:44.501Z,41.67
2019-01-25T16:57:11.342Z,41.57
2019-01-25T16:59:37.877Z,41.23
2019-01-25T17:02:04.415Z,39.70
2019-01-25T17:04:30.947Z,39.63
2019-01-25T17:06:57.481Z,42.30
2019-01-25T17:09:24.323Z,41.70
2019-01-25T17:11:50.864Z,44.23
2019-01-25T17:14:17.392Z,41.97
2019-01-25T17:16:43.928Z,41.97
2019-01-25T17:19:10.461Z,43.17
2019-01-25T17:21:37.302Z,42.80
2019-01-25T17:24:03.836Z,42.00
2019-01-25T17:26:30.680Z,40.10
2019-01-25T17:28:57.213Z,46.87
2019-01-25T17:31:23.748Z,47.90
2019-01-25T17:33:50.589Z,44.27
2019-01-25T17:36:17.123Z,41.00
2019-01-25T17:38:43.662Z,46.20
2019-01-25T17:41:10.504Z,45.93
2019-01-25T17:43:37.034Z,44.63
2019-01-25T17:46:03.861Z,43.37
2019-01-25T17:48:30.718Z,46.33
2019-01-25T17:50:57.564Z,46.87
2019-01-25T17:53:24.099Z,48.50
2019-01-25T17:55:50.630Z,50.70
2019-01-25T17:58:17.471Z,47.43
2019-01-25T18:00:44.014Z,47.17
2019-01-25T18:03:10.845Z,47.23
2019-01-25T18:05:37.689Z,50.70
2019-01-25T18:08:04.226Z,48.83
2019-01-25T18:10:31.064Z,49.10
2019-01-25T18:12:57.598Z,47.47
2019-01-25T18:15:24.132Z,45.43
2019-01-25T18:17:50.993Z,54.60
2019-01-25T18:20:17.509Z,48.97
2019-01-25T18:22:44.350Z,45.13
2019-01-25T18:25:10.885Z,47.40
2019-01-25T18:27:37.727Z,47.43
2019-01-25T18:30:04.568Z,50.20
2019-01-25T18:32:31.104Z,49.63
2019-01-25T18:34:57.945Z,48.33
2019-01-25T18:37:24.482Z,47.33
2019-01-25T18:39:51.015Z,49.20
2019-01-25T18:42:17.855Z,51.57
2019-01-25T18:44:44.397Z,46.87
2019-01-25T18:47:11.232Z,55.43
2019-01-25T18:49:37.759Z,50.07
2019-01-25T18:52:04.303Z,49.43
2019-01-25T18:54:30.834Z,48.37
2019-01-25T18:56:57.678Z,47.83
2019-01-25T18:59:24.524Z,49.20
2019-01-25T19:01:51.055Z,49.57
2019-01-25T19:04:17.590Z,51.30
2019-01-25T19:06:44.122Z,49.07
2019-01-25T19:09:10.964Z,50.10
2019-01-25T19:11:37.810Z,47.37
2019-01-25T19:14:04.646Z,47.17
2019-01-25T19:16:31.492Z,47.63
2019-01-25T19:18:58.332Z,51.37
2019-01-25T19:21:25.172Z,47.10
2019-01-25T19:23:51.713Z,48.93
2019-01-25T19:26:19.506Z,48.47
2019-01-25T19:28:46.316Z,48.13
2019-01-25T19:31:12.848Z,46.20
2019-01-25T19:33:39.691Z,48.67
2019-01-25T19:36:06.570Z,48.43
2019-01-25T19:38:33.069Z,48.43
2019-01-25T19:40:59.599Z,47.87
2019-01-25T19:43:26.442Z,48.63
2019-01-25T19:45:53.284Z,46.20
2019-01-25T19:48:20.123Z,45.73
2019-01-25T19:50:46.659Z,44.50
2019-01-25T19:53:13.500Z,46.60
2019-01-25T19:55:40.036Z,47.43
2019-01-25T19:58:06.875Z,48.50
2019-01-25T20:00:33.718Z,50.07
2019-01-25T20:03:00.252Z,44.93
2019-01-25T20:05:27.094Z,43.77
2019-01-25T20:07:53.938Z,43.10
2019-01-25T20:10:20.777Z,45.37
2019-01-25T20:12:47.618Z,48.13
2019-01-25T20:15:19.362Z,46.67
2019-01-25T20:17:42.530Z,43.33
2019-01-25T20:20:09.372Z,42.27
2019-01-25T20:22:36.214Z,43.10
2019-01-25T20:25:03.055Z,41.90
2019-01-25T20:27:29.898Z,44.67
2019-01-25T20:29:56.739Z,43.30
2019-01-25T20:32:23.276Z,42.87
2019-01-25T20:34:49.808Z,45.10
2019-01-25T20:37:16.452Z,40.27
2019-01-25T20:39:43.184Z,45.37
2019-01-25T20:42:10.026Z,45.17
2019-01-25T20:44:36.562Z,45.17
2019-01-25T20:47:03.099Z,45.13
2019-01-25T20:49:29.937Z,43.50
2019-01-25T20:51:56.471Z,43.27
2019-01-25T20:54:23.315Z,44.23
2019-01-25T20:56:49.848Z,46.57
2019-01-25T20:59:16.689Z,41.77
2019-01-25T21:01:43.534Z,41.47
2019-01-25T21:04:10.067Z,40.63
2019-01-25T21:06:36.601Z,45.10
2019-01-25T21:09:03.135Z,40.73
2019-01-25T21:11:29.679Z,39.43
2019-01-25T21:13:56.296Z,41.40
2019-01-25T21:16:23.030Z,39.00
2019-01-25T21:18:49.887Z,36.10
2019-01-25T21:21:16.422Z,41.37
2019-01-25T21:23:43.262Z,38.53
2019-01-25T21:26:10.107Z,42.60
2019-01-25T21:28:36.946Z,37.30
2019-01-25T21:31:03.789Z,41.43
2019-01-25T21:33:30.326Z,40.23
2019-01-25T21:35:56.857Z,42.57
2019-01-25T21:38:23.698Z,40.57
2019-01-25T21:40:50.233Z,39.80
2019-01-25T21:43:17.075Z,41.03
2019-01-25T21:45:46.681Z,40.60
2019-01-25T21:48:13.222Z,40.93
2019-01-25T21:50:40.061Z,41.40
2019-01-25T21:53:06.898Z,41.77
2019-01-25T21:55:33.433Z,41.70
2019-01-25T21:58:05.320Z,44.30
2019-01-25T22:00:28.349Z,38.83
2019-01-25T22:02:55.193Z,39.87
2019-01-25T22:05:22.033Z,41.13
2019-01-25T22:07:48.570Z,44.90
2019-01-25T22:10:15.106Z,38.20
2019-01-25T22:12:41.641Z,43.53
2019-01-25T22:15:08.787Z,40.27
2019-01-25T22:17:35.638Z,38.97
2019-01-25T22:20:02.163Z,42.03
2019-01-25T22:22:28.698Z,35.67
2019-01-25T22:24:55.234Z,40.93
2019-01-25T22:27:22.073Z,45.07
2019-01-25T22:29:48.609Z,38.10
2019-01-25T22:32:15.452Z,39.57
2019-01-25T22:34:42.290Z,40.63
2019-01-25T22:37:09.131Z,38.27
2019-01-25T22:39:35.758Z,40.83
2019-01-25T22:42:02.507Z,38.97
2019-01-25T22:44:29.043Z,44.57
2019-01-25T22:46:55.576Z,39.90
2019-01-25T22:49:22.417Z,43.10
2019-01-25T22:51:49.557Z,38.57
2019-01-25T22:54:16.102Z,44.63
2019-01-25T22:56:42.636Z,42.60
2019-01-25T22:59:09.169Z,43.07
2019-01-25T23:01:36.011Z,46.93
2019-01-25T23:04:02.545Z,45.47
2019-01-25T23:06:29.079Z,41.33
2019-01-25T23:08:55.614Z,43.07
2019-01-25T23:11:22.161Z,40.80
2019-01-25T23:13:48.683Z,45.40
2019-01-25T23:16:15.524Z,43.17
2019-01-25T23:18:42.371Z,44.67
2019-01-25T23:21:09.210Z,46.70
2019-01-25T23:23:35.744Z,45.77
2019-01-25T23:26:02.281Z,44.87
2019-01-25T23:28:29.118Z,45.70
2019-01-25T23:30:55.654Z,43.37
2019-01-25T23:33:22.188Z,48.63
2019-01-25T23:35:48.742Z,44.97
2019-01-25T23:38:15.257Z,46.63
2019-01-25T23:40:42.097Z,48.20
2019-01-25T23:43:08.631Z,46.73
2019-01-25T23:45:35.474Z,46.00
2019-01-25T23:48:02.317Z,44.20
2019-01-25T23:50:29.159Z,47.37
2019-01-25T23:52:55.998Z,47.07
2019-01-25T23:55:22.843Z,45.80
2019-01-25T23:57:49.377Z,48.07
